Time;durP1;ratioP1;P1;durP2;ratioP2;P2;SDS_P1;SDS_P2;PMS_P1;PMS_P2;Temp;Humidity;BMP_temperature;BMP_pressure;BME280_temperature;BME280_humidity;BME280_pressure;Samples;Min_cycle;Max_cycle;Signal;HPM_P1;HPM_P2
2022/05/27 00:01:12;;;;;;;2.70;1.55;;;20.30;58.00;;;;;;5143163;27;43821;-62
2022/05/27 00:03:39;;;;;;;2.80;1.67;;;20.30;58.10;;;;;;5149145;27;43841;-62
2022/05/27 00:06:07;;;;;;;2.85;1.80;;;20.30;58.10;;;;;;5130435;27;43474;-62
2022/05/27 00:08:35;;;;;;;3.15;1.80;;;20.30;58.10;;;;;;5146853;27;43585;-62
2022/05/27 00:11:03;;;;;;;3.75;2.00;;;20.30;58.10;;;;;;5147179;27;44146;-62
2022/05/27 00:13:31;;;;;;;3.10;1.80;;;20.30;58.10;;;;;;5148602;27;43986;-62
2022/05/27 00:15:59;;;;;;;2.17;1.50;;;20.30;58.70;;;;;;5148966;27;43410;-62
2022/05/27 00:18:26;;;;;;;2.92;1.30;;;20.30;58.10;;;;;;5150919;27;43472;-63
2022/05/27 00:20:55;;;;;;;3.42;1.88;;;20.30;58.00;;;;;;5146956;27;43806;-62
2022/05/27 00:23:22;;;;;;;2.60;1.52;;;20.30;58.10;;;;;;5150192;27;43402;-62
2022/05/27 00:25:50;;;;;;;4.18;1.80;;;20.30;58.00;;;;;;5148717;27;44208;-62
2022/05/27 00:28:17;;;;;;;1.65;1.48;;;20.30;58.00;;;;;;5148761;27;43522;-62
2022/05/27 00:30:45;;;;;;;3.08;1.60;;;20.30;58.00;;;;;;5148663;27;44088;-62
2022/05/27 00:33:13;;;;;;;2.75;1.60;;;20.30;58.00;;;;;;5148613;27;43514;-62
2022/05/27 00:35:40;;;;;;;2.58;1.50;;;20.30;58.00;;;;;;5148294;27;43497;-62
2022/05/27 00:38:08;;;;;;;4.60;1.70;;;20.30;58.00;;;;;;5146669;27;43474;-62
2022/05/27 00:40:47;;;;;;;3.10;1.60;;;20.30;58.00;;;;;;5148760;27;43796;-62
2022/05/27 00:43:15;;;;;;;2.25;1.48;;;20.20;57.90;;;;;;5140734;27;43446;-62
2022/05/27 00:45:45;;;;;;;2.60;1.70;;;20.20;58.00;;;;;;5144815;27;43481;-62
2022/05/27 00:48:19;;;;;;;2.83;1.50;;;20.20;58.00;;;;;;5121088;27;43578;-62
2022/05/27 00:50:49;;;;;;;2.45;1.65;;;20.20;58.10;;;;;;5148694;27;44661;-62
2022/05/27 00:53:43;;;;;;;2.80;1.58;;;20.20;58.00;;;;;;5148891;27;43492;-63
2022/05/27 00:56:13;;;;;;;5.18;2.10;;;20.20;57.90;;;;;;5147250;27;43427;-62
2022/05/27 00:58:51;;;;;;;3.53;2.00;;;20.20;57.90;;;;;;5148877;27;43439;-62
2022/05/27 01:01:18;;;;;;;2.38;1.48;;;20.20;57.90;;;;;;5148490;27;44652;-62
2022/05/27 01:03:47;;;;;;;1.90;1.70;;;20.20;57.90;;;;;;5146607;27;43682;-62
2022/05/27 01:06:15;;;;;;;1.83;1.40;;;20.20;58.00;;;;;;5129346;27;43458;-62
2022/05/27 01:08:45;;;;;;;2.78;1.75;;;20.20;57.90;;;;;;5148043;27;43513;-62
2022/05/27 01:11:31;;;;;;;1.75;1.52;;;20.20;57.90;;;;;;5147978;27;43803;-62
2022/05/27 01:14:17;;;;;;;2.88;1.40;;;20.10;57.80;;;;;;5142597;27;43432;-62
2022/05/27 01:17:07;;;;;;;2.42;1.40;;;20.10;57.80;;;;;;5145350;27;43449;-63
2022/05/27 01:20:20;;;;;;;3.03;1.40;;;20.10;57.90;;;;;;5144970;27;43435;-62
2022/05/27 01:23:12;;;;;;;1.85;1.30;;;20.10;57.90;;;;;;5147098;27;45282;-62
2022/05/27 01:26:17;;;;;;;2.33;1.45;;;20.10;58.00;;;;;;5146885;27;43420;-62
2022/05/27 01:28:47;;;;;;;3.05;1.50;;;20.10;57.90;;;;;;5142635;27;43424;-62
2022/05/27 01:31:27;;;;;;;2.28;1.30;;;20.10;58.00;;;;;;5147179;27;43547;-62
2022/05/27 01:34:22;;;;;;;2.30;1.48;;;20.00;57.90;;;;;;5135903;27;44854;-62
2022/05/27 01:37:19;;;;;;;2.65;1.50;;;20.10;58.00;;;;;;5144511;27;43588;-62
2022/05/27 01:39:55;;;;;;;3.47;1.63;;;20.00;57.90;;;;;;5135844;27;43390;-62
2022/05/27 01:42:39;;;;;;;2.97;1.50;;;20.00;57.90;;;;;;5145870;27;43737;-62
2022/05/27 01:45:15;;;;;;;2.83;1.50;;;20.00;57.90;;;;;;5127538;27;43796;-62
2022/05/27 01:48:07;;;;;;;2.47;1.35;;;20.00;57.90;;;;;;5139542;27;43373;-62
2022/05/27 01:50:49;;;;;;;2.38;1.20;;;20.00;57.90;;;;;;5143672;27;43371;-62
2022/05/27 01:53:52;;;;;;;2.70;1.55;;;20.00;57.90;;;;;;5147768;27;43462;-62
2022/05/27 01:56:26;;;;;;;1.77;1.38;;;20.00;57.90;;;;;;5085901;27;44670;-62
2022/05/27 01:59:00;;;;;;;2.40;1.40;;;20.00;58.00;;;;;;5143143;27;43432;-62
2022/05/27 02:01:34;;;;;;;2.63;1.52;;;20.00;58.00;;;;;;5136353;27;43454;-62
2022/05/27 02:04:11;;;;;;;3.88;1.75;;;20.00;57.90;;;;;;5147885;27;43569;-63
2022/05/27 02:07:02;;;;;;;2.67;1.38;;;20.00;58.00;;;;;;5150082;27;44985;-62
2022/05/27 02:09:34;;;;;;;3.47;1.58;;;20.00;57.90;;;;;;5123872;27;43452;-62
2022/05/27 02:12:08;;;;;;;2.65;1.70;;;20.00;57.90;;;;;;5143646;27;43493;-62
2022/05/27 02:14:51;;;;;;;2.40;1.63;;;20.00;57.90;;;;;;5150075;27;43443;-62
2022/05/27 02:17:26;;;;;;;1.75;1.25;;;20.00;57.90;;;;;;5135715;27;44000;-62
2022/05/27 02:20:01;;;;;;;2.05;1.20;;;19.90;57.90;;;;;;5126813;27;43445;-63
2022/05/27 02:22:35;;;;;;;2.15;1.30;;;19.90;57.90;;;;;;5149772;27;43500;-62
2022/05/27 02:25:17;;;;;;;2.67;1.30;;;19.90;57.90;;;;;;5120854;27;43468;-62
2022/05/27 02:28:00;;;;;;;3.05;1.20;;;19.90;58.50;;;;;;5148215;27;43779;-62
2022/05/27 02:30:32;;;;;;;1.77;1.20;;;19.90;57.80;;;;;;5130923;27;44058;-62
2022/05/27 02:35:50;;;;;;;2.05;1.20;;;19.90;57.80;;;;;;5150586;27;43394;-62
2022/05/27 02:38:17;;;;;;;2.85;1.40;;;19.90;57.90;;;;;;5148560;27;43784;-62
2022/05/27 02:41:23;;;;;;;1.83;1.15;;;19.90;57.90;;;;;;5150250;27;43416;-62
2022/05/27 02:44:13;;;;;;;2.30;1.05;;;19.80;57.80;;;;;;5139653;27;43535;-62
2022/05/27 02:46:49;;;;;;;2.22;1.48;;;19.80;57.80;;;;;;5129377;27;43504;-62
2022/05/27 02:49:27;;;;;;;2.40;1.40;;;19.80;57.80;;;;;;5145994;27;44270;-62
2022/05/27 02:52:21;;;;;;;1.85;1.38;;;19.80;57.80;;;;;;5153329;27;43496;-62
2022/05/27 02:55:05;;;;;;;1.58;1.25;;;19.80;57.80;;;;;;5139667;27;43379;-62
2022/05/27 02:57:54;;;;;;;2.10;1.42;;;19.80;57.90;;;;;;5151050;27;43450;-62
2022/05/27 03:00:27;;;;;;;2.38;1.55;;;19.80;57.80;;;;;;5150471;27;44668;-62
2022/05/27 03:02:59;;;;;;;2.45;1.33;;;19.80;57.80;;;;;;5150202;27;43474;-62
2022/05/27 03:05:43;;;;;;;2.05;1.13;;;19.80;57.80;;;;;;5148923;27;43418;-62
2022/05/27 03:08:30;;;;;;;1.83;1.20;;;19.80;57.80;;;;;;5131216;27;43501;-62
2022/05/27 03:11:04;;;;;;;2.97;1.65;;;19.80;57.80;;;;;;5144467;27;43917;-62
2022/05/27 03:13:50;;;;;;;3.70;1.75;;;19.80;57.80;;;;;;5147892;27;43522;-63
2022/05/27 03:16:46;;;;;;;2.90;1.45;;;19.80;57.80;;;;;;5139189;27;43404;-63
2022/05/27 03:19:32;;;;;;;1.48;1.17;;;19.80;57.70;;;;;;5129732;27;43455;-62
2022/05/27 03:22:26;;;;;;;2.33;1.30;;;19.80;57.80;;;;;;5148535;27;43825;-62
2022/05/27 03:24:58;;;;;;;3.03;1.30;;;19.70;57.70;;;;;;5148420;27;43804;-62
2022/05/27 03:27:54;;;;;;;2.30;1.30;;;19.70;57.80;;;;;;5139560;27;43433;-62
2022/05/27 03:30:31;;;;;;;2.67;1.48;;;19.70;57.80;;;;;;5127214;27;43541;-62
2022/05/27 03:33:02;;;;;;;3.97;1.60;;;19.80;57.80;;;;;;5148237;27;44649;-62
2022/05/27 03:35:35;;;;;;;2.05;1.27;;;19.70;57.80;;;;;;5131291;27;43446;-62
2022/05/27 03:38:26;;;;;;;1.75;1.30;;;19.70;57.80;;;;;;5149958;27;43482;-62
2022/05/27 03:41:06;;;;;;;2.13;1.15;;;19.70;57.70;;;;;;5149052;27;43493;-62
2022/05/27 03:43:35;;;;;;;2.17;1.20;;;19.70;57.80;;;;;;5149259;27;43761;-62
2022/05/27 03:46:04;;;;;;;1.92;1.27;;;19.70;57.80;;;;;;5142056;27;43384;-62
2022/05/27 03:48:34;;;;;;;2.05;1.35;;;19.70;57.80;;;;;;5149737;27;43467;-62
2022/05/27 03:51:10;;;;;;;2.63;1.65;;;19.70;57.80;;;;;;5147110;27;43456;-62
2022/05/27 03:56:24;;;;;;;1.88;1.10;;;19.70;57.80;;;;;;5144829;27;44010;-62
2022/05/27 03:58:51;;;;;;;1.95;1.17;;;19.70;57.80;;;;;;5150643;27;43483;-62
2022/05/27 04:01:25;;;;;;;2.90;1.27;;;19.70;57.80;;;;;;5149767;27;43427;-62
2022/05/27 04:03:52;;;;;;;1.65;1.27;;;19.70;57.70;;;;;;5149340;27;44616;-62
2022/05/27 04:06:20;;;;;;;2.13;1.20;;;19.60;57.60;;;;;;5148953;27;43498;-62
2022/05/27 04:08:47;;;;;;;3.63;1.85;;;19.60;57.60;;;;;;5145888;27;43410;-62
2022/05/27 04:11:15;;;;;;;2.70;1.42;;;19.60;57.60;;;;;;5149485;27;43434;-62
2022/05/27 04:13:43;;;;;;;2.00;1.45;;;19.60;57.70;;;;;;5148965;27;44533;-62
2022/05/27 04:16:10;;;;;;;2.08;1.30;;;19.60;57.60;;;;;;5148824;27;43410;-62
2022/05/27 04:18:38;;;;;;;1.60;1.15;;;19.60;57.70;;;;;;5150054;27;43390;-62
2022/05/27 04:21:05;;;;;;;2.30;1.40;;;19.60;57.60;;;;;;5144514;27;43479;-62
2022/05/27 04:23:32;;;;;;;2.22;1.50;;;19.60;57.60;;;;;;5147006;27;43934;-62
2022/05/27 04:26:00;;;;;;;1.63;1.08;;;19.60;57.50;;;;;;5148920;27;43506;-62
2022/05/27 04:28:27;;;;;;;1.92;1.40;;;19.60;57.50;;;;;;5149778;27;43430;-62
2022/05/27 04:30:55;;;;;;;2.22;1.50;;;19.50;57.40;;;;;;5148929;27;43473;-62
2022/05/27 04:33:22;;;;;;;1.63;1.20;;;19.50;57.40;;;;;;5148898;27;44750;-62
2022/05/27 04:35:50;;;;;;;2.00;1.40;;;19.50;57.40;;;;;;5148851;27;43678;-62
2022/05/27 04:38:17;;;;;;;3.22;1.40;;;19.50;57.40;;;;;;5144820;27;43398;-62
2022/05/27 04:40:45;;;;;;;2.45;1.50;;;19.50;57.40;;;;;;5149138;27;43457;-62
2022/05/27 04:43:13;;;;;;;3.00;1.60;;;19.50;57.40;;;;;;5141625;27;43790;-62
2022/05/27 04:45:40;;;;;;;3.08;1.63;;;19.50;57.40;;;;;;5148162;27;43791;-62
2022/05/27 04:48:09;;;;;;;3.70;1.75;;;19.50;57.40;;;;;;5138009;27;43402;-62
2022/05/27 04:50:37;;;;;;;3.67;1.70;;;19.50;57.40;;;;;;5149166;27;44010;-62
2022/05/27 04:53:04;;;;;;;2.92;1.50;;;19.50;57.40;;;;;;5148381;27;45785;-62
2022/05/27 04:55:34;;;;;;;3.95;1.90;;;19.50;57.40;;;;;;5146993;27;43459;-62
2022/05/27 04:58:02;;;;;;;3.47;1.48;;;19.50;57.30;;;;;;5128499;27;43405;-62
2022/05/27 05:00:38;;;;;;;1.85;1.42;;;19.50;57.30;;;;;;5148287;27;43450;-62
2022/05/27 05:03:06;;;;;;;3.25;1.80;;;19.50;57.30;;;;;;5148348;27;44045;-62
2022/05/27 05:05:35;;;;;;;2.42;1.55;;;19.50;57.30;;;;;;5149949;27;43719;-62
2022/05/27 05:08:06;;;;;;;2.65;1.60;;;19.50;57.30;;;;;;5147661;27;43482;-62
2022/05/27 05:10:35;;;;;;;2.88;1.65;;;19.40;57.20;;;;;;5148021;27;44053;-62
2022/05/27 05:13:03;;;;;;;3.78;1.83;;;19.40;57.20;;;;;;5148158;27;44684;-62
2022/05/27 05:15:30;;;;;;;2.45;1.90;;;19.40;57.20;;;;;;5148914;27;43422;-62
2022/05/27 05:17:58;;;;;;;2.33;1.50;;;19.40;57.20;;;;;;5147366;27;43414;-62
2022/05/27 05:20:29;;;;;;;3.03;1.65;;;19.40;57.30;;;;;;5147901;27;43510;-62
2022/05/27 05:22:57;;;;;;;3.70;1.90;;;19.40;57.20;;;;;;5147388;27;44088;-62
2022/05/27 05:25:25;;;;;;;3.28;1.80;;;19.40;57.30;;;;;;5144536;27;43397;-62
2022/05/27 05:27:52;;;;;;;3.95;1.80;;;19.40;57.30;;;;;;5112413;27;43475;-62
2022/05/27 05:30:22;;;;;;;3.38;1.65;;;19.40;57.20;;;;;;5139831;27;43464;-62
2022/05/27 05:32:50;;;;;;;3.10;1.77;;;19.40;57.20;;;;;;5147706;27;44705;-62
2022/05/27 05:35:20;;;;;;;3.80;1.73;;;19.40;57.30;;;;;;5145217;27;43465;-62
2022/05/27 05:37:47;;;;;;;2.60;1.65;;;19.30;57.20;;;;;;5147040;27;43452;-62
2022/05/27 05:40:16;;;;;;;4.97;2.10;;;19.30;57.20;;;;;;5147931;27;43502;-62
2022/05/27 05:42:46;;;;;;;3.80;1.90;;;19.30;57.20;;;;;;5145578;27;45024;-63
2022/05/27 05:45:16;;;;;;;3.77;1.83;;;19.30;57.20;;;;;;5143201;27;43911;-62
2022/05/27 05:47:44;;;;;;;2.92;1.60;;;19.30;57.20;;;;;;5146777;27;43426;-62
2022/05/27 05:50:13;;;;;;;3.90;1.90;;;19.30;57.20;;;;;;5144683;27;43556;-62
2022/05/27 05:52:41;;;;;;;3.30;2.10;;;19.30;57.20;;;;;;5144117;27;43834;-62
2022/05/27 05:55:09;;;;;;;5.32;2.03;;;19.30;57.20;;;;;;5147159;27;43467;-62
2022/05/27 05:57:42;;;;;;;4.55;2.00;;;19.30;57.20;;;;;;5139983;27;43415;-62
2022/05/27 06:00:14;;;;;;;3.20;2.00;;;19.30;57.20;;;;;;5145026;27;43430;-62
2022/05/27 06:02:41;;;;;;;;;;;19.30;57.20;;;;;;5152375;27;44033;-62
2022/05/27 06:05:09;;;;;;;3.78;1.88;;;19.30;57.20;;;;;;5150088;27;43440;-62
2022/05/27 06:07:37;;;;;;;4.55;1.85;;;19.30;57.20;;;;;;5141232;27;43511;-63
2022/05/27 06:10:06;;;;;;;3.78;2.00;;;19.30;57.20;;;;;;5147061;27;44069;-62
2022/05/27 06:12:35;;;;;;;3.70;2.30;;;19.30;57.10;;;;;;5152850;27;43807;-63
2022/05/27 06:15:05;;;;;;;3.92;2.00;;;19.30;57.10;;;;;;5129043;27;43379;-62
2022/05/27 06:17:33;;;;;;;4.85;2.13;;;19.30;57.00;;;;;;5141990;27;43451;-62
2022/05/27 06:20:01;;;;;;;4.45;1.92;;;19.30;57.00;;;;;;5142396;27;43449;-62
2022/05/27 06:22:29;;;;;;;3.28;1.90;;;19.30;57.00;;;;;;5146892;27;44715;-62
2022/05/27 06:24:58;;;;;;;4.43;2.25;;;19.30;56.90;;;;;;5141554;27;43481;-62
2022/05/27 06:27:27;;;;;;;4.23;1.90;;;19.30;56.90;;;;;;5149301;27;43449;-62
2022/05/27 06:35:27;;;;;;;5.60;2.28;;;19.30;56.90;;;;;;5143425;27;43481;-63
2022/05/27 06:37:54;;;;;;;4.18;1.85;;;19.30;56.70;;;;;;5148107;27;43490;-63
2022/05/27 06:40:22;;;;;;;4.25;2.10;;;19.30;56.70;;;;;;5150591;27;43464;-62
2022/05/27 06:42:49;;;;;;;3.38;1.80;;;19.30;56.80;;;;;;5150074;27;43784;-62
2022/05/27 06:45:17;;;;;;;5.43;2.00;;;19.30;57.50;;;;;;5146865;27;43533;-62
2022/05/27 06:47:44;;;;;;;4.45;1.90;;;19.30;56.70;;;;;;5119790;27;43574;-62
2022/05/27 06:50:12;;;;;;;4.85;2.13;;;19.30;56.70;;;;;;5150115;27;43531;-62
2022/05/27 06:52:40;;;;;;;3.80;1.95;;;19.30;56.70;;;;;;5149699;27;44689;-62
2022/05/27 06:55:14;;;;;;;4.88;2.08;;;19.30;56.70;;;;;;5149264;27;44047;-62
2022/05/27 06:57:42;;;;;;;4.75;1.85;;;19.30;56.70;;;;;;5152228;27;43523;-62
2022/05/27 07:00:11;;;;;;;4.15;2.17;;;19.30;56.60;;;;;;5131323;27;43653;-62
2022/05/27 07:02:39;;;;;;;10.25;3.00;;;19.30;56.70;;;;;;5149258;27;43634;-62
2022/05/27 07:05:07;;;;;;;14.82;3.65;;;19.30;56.60;;;;;;5147548;27;43591;-62
2022/05/27 07:07:35;;;;;;;23.48;3.70;;;19.30;56.70;;;;;;5151117;27;43406;-62
2022/05/27 07:10:03;;;;;;;14.55;3.10;;;19.30;56.60;;;;;;5148178;27;43553;-61
2022/05/27 07:12:30;;;;;;;13.60;3.15;;;19.30;56.50;;;;;;5145675;27;43592;-61
2022/05/27 07:14:58;;;;;;;15.43;4.93;;;19.30;56.40;;;;;;5145501;27;43427;-62
2022/05/27 07:17:26;;;;;;;14.63;4.85;;;19.30;56.60;;;;;;5151855;27;43403;-62
2022/05/27 07:19:54;;;;;;;20.58;4.95;;;19.30;56.60;;;;;;5149326;27;43575;-62
2022/05/27 07:22:21;;;;;;;12.93;4.53;;;19.30;56.60;;;;;;5148699;27;43786;-62
2022/05/27 07:24:49;;;;;;;10.50;4.20;;;19.30;56.60;;;;;;5149020;27;43506;-62
2022/05/27 07:27:16;;;;;;;10.25;4.20;;;19.30;56.60;;;;;;5152034;27;43472;-62
2022/05/27 07:29:43;;;;;;;10.82;4.18;;;19.40;56.60;;;;;;5149387;27;43393;-62
2022/05/27 07:32:11;;;;;;;9.38;4.00;;;19.40;56.60;;;;;;5102085;27;44788;-63
2022/05/27 07:34:39;;;;;;;14.10;4.25;;;19.40;57.20;;;;;;5147706;27;43483;-61
2022/05/27 07:37:06;;;;;;;17.23;3.90;;;19.50;56.50;;;;;;5151221;27;43359;-62
2022/05/27 07:39:34;;;;;;;7.30;3.25;;;19.60;56.60;;;;;;5149194;27;43419;-60
2022/05/27 07:42:01;;;;;;;10.43;3.70;;;19.70;56.50;;;;;;5147006;27;44887;-61
2022/05/27 07:44:29;;;;;;;10.52;3.60;;;19.80;56.60;;;;;;5126705;27;43411;-61
2022/05/27 07:46:56;;;;;;;6.28;3.42;;;19.90;56.70;;;;;;5150498;27;43617;-62
2022/05/27 07:49:24;;;;;;;9.27;3.60;;;20.10;56.30;;;;;;5146108;27;43431;-62
2022/05/27 07:52:01;;;;;;;8.90;3.22;;;20.20;56.30;;;;;;5143859;27;45080;-61
2022/05/27 07:54:29;;;;;;;14.60;3.22;;;20.30;56.90;;;;;;5149851;27;43631;-60
2022/05/27 07:56:57;;;;;;;8.73;3.10;;;20.50;56.70;;;;;;5150530;27;43517;-61
2022/05/27 07:59:25;;;;;;;10.45;3.20;;;20.60;56.00;;;;;;5147941;27;43486;-62
2022/05/27 08:01:53;;;;;;;6.57;2.67;;;20.80;55.80;;;;;;5148826;27;44052;-62
2022/05/27 08:04:20;;;;;;;8.60;3.17;;;20.90;55.30;;;;;;5148213;27;43783;-62
2022/05/27 08:06:48;;;;;;;7.57;2.92;;;21.10;54.90;;;;;;5147051;27;43424;-61
2022/05/27 08:09:16;;;;;;;6.68;2.97;;;21.30;54.70;;;;;;5146366;27;43761;-62
2022/05/27 08:11:43;;;;;;;5.85;2.67;;;21.40;54.50;;;;;;5148518;27;45890;-62
2022/05/27 08:14:10;;;;;;;4.35;2.60;;;21.60;54.10;;;;;;5149502;27;43424;-62
2022/05/27 08:16:41;;;;;;;5.57;2.60;;;21.70;53.60;;;;;;5149269;27;43515;-62
2022/05/27 08:19:09;;;;;;;6.75;2.42;;;21.90;53.50;;;;;;5143832;27;43571;-61
2022/05/27 08:21:37;;;;;;;7.22;2.83;;;22.00;53.10;;;;;;5146716;27;44674;-62
2022/05/27 08:24:07;;;;;;;6.20;2.70;;;22.10;53.10;;;;;;5149535;27;43640;-61
2022/05/27 08:26:37;;;;;;;4.63;2.65;;;22.20;52.90;;;;;;5147064;27;43518;-61
2022/05/27 08:29:07;;;;;;;4.90;2.33;;;22.40;52.80;;;;;;5148650;27;43474;-62
2022/05/27 08:31:35;;;;;;;5.68;2.60;;;22.40;52.60;;;;;;5148376;27;45058;-61
2022/05/27 08:39:39;;;;;;;5.07;2.60;;;22.60;52.10;;;;;;5148211;27;43607;-62
2022/05/27 08:42:14;;;;;;;4.90;2.47;;;22.70;52.10;;;;;;5150170;27;44721;-62
2022/05/27 08:45:00;;;;;;;5.75;2.70;;;22.70;52.10;;;;;;5137085;27;43358;-62
2022/05/27 08:47:57;;;;;;;7.32;2.60;;;22.70;51.90;;;;;;5140122;27;43427;-62
2022/05/27 08:50:29;;;;;;;7.35;2.63;;;22.70;51.80;;;;;;5134942;27;43494;-61
2022/05/27 08:53:12;;;;;;;5.82;2.35;;;22.70;51.90;;;;;;5148260;27;43789;-62
2022/05/27 09:01:43;;;;;;;5.88;2.53;;;22.50;52.00;;;;;;5138183;27;43910;-62
2022/05/27 09:04:26;;;;;;;5.85;2.30;;;22.50;52.00;;;;;;5129778;27;43818;-61
2022/05/27 09:07:02;;;;;;;4.35;2.30;;;22.40;52.10;;;;;;5147846;27;43427;-61
2022/05/27 09:09:31;;;;;;;4.15;2.30;;;22.40;52.30;;;;;;5131790;27;43430;-61
2022/05/27 09:12:27;;;;;;;7.32;2.35;;;22.30;53.00;;;;;;5147773;27;43471;-61
2022/05/27 09:15:01;;;;;;;6.57;2.72;;;22.20;52.30;;;;;;5147743;27;44071;-62
2022/05/27 09:17:42;;;;;;;4.68;2.45;;;22.20;52.50;;;;;;5145430;27;44025;-62
2022/05/27 09:20:19;;;;;;;5.93;2.58;;;22.10;52.60;;;;;;5141461;27;43428;-61
2022/05/27 09:23:00;;;;;;;7.30;2.50;;;22.10;52.70;;;;;;5147939;27;43461;-62
2022/05/27 09:26:04;;;;;;;6.80;2.53;;;22.00;52.80;;;;;;5145961;27;45041;-61
2022/05/27 09:28:38;;;;;;;7.85;2.33;;;22.00;52.80;;;;;;5147864;27;43420;-62
2022/05/27 09:31:09;;;;;;;6.07;2.45;;;21.90;53.00;;;;;;5148045;27;43525;-62
2022/05/27 09:33:37;;;;;;;8.73;2.60;;;21.80;53.00;;;;;;5128504;27;43532;-61
2022/05/27 09:36:28;;;;;;;5.40;2.63;;;21.80;53.10;;;;;;5150996;27;44651;-61
2022/05/27 09:39:00;;;;;;;6.13;2.47;;;21.80;53.80;;;;;;5151607;27;43476;-62
2022/05/27 09:41:37;;;;;;;6.68;2.60;;;21.70;53.20;;;;;;5149728;27;44007;-62
2022/05/27 09:44:17;;;;;;;5.53;2.60;;;21.80;53.30;;;;;;5150605;27;43507;-62
2022/05/27 09:46:44;;;;;;;5.60;2.22;;;21.70;53.30;;;;;;5132298;27;43850;-61
2022/05/27 09:49:12;;;;;;;5.60;2.20;;;21.70;53.40;;;;;;5148900;27;43457;-62
2022/05/27 09:51:39;;;;;;;4.85;2.33;;;21.70;53.50;;;;;;5146981;27;43409;-61
2022/05/27 09:54:18;;;;;;;5.47;2.47;;;21.70;53.50;;;;;;5151435;27;43532;-61
2022/05/27 09:56:58;;;;;;;6.15;2.67;;;21.60;53.50;;;;;;5152723;27;45034;-62
2022/05/27 09:59:37;;;;;;;4.72;2.00;;;21.70;53.60;;;;;;5139198;27;43429;-62
2022/05/27 10:02:26;;;;;;;8.30;2.35;;;21.60;53.50;;;;;;5145911;27;43449;-61
2022/05/27 10:04:58;;;;;;;5.50;2.58;;;21.60;53.60;;;;;;5148974;27;43479;-62
2022/05/27 10:07:28;;;;;;;5.97;2.78;;;21.60;53.70;;;;;;5128083;27;43801;-61
2022/05/27 10:09:56;;;;;;;6.88;2.53;;;21.60;53.70;;;;;;5147861;27;43460;-61
2022/05/27 10:12:34;;;;;;;7.07;2.78;;;21.50;53.60;;;;;;5153071;27;43504;-62
2022/05/27 10:15:01;;;;;;;5.82;2.10;;;21.50;53.60;;;;;;5138436;27;43394;-61
2022/05/27 10:17:36;;;;;;;5.70;2.50;;;21.50;53.70;;;;;;5131084;27;44727;-62
2022/05/27 10:20:22;;;;;;;4.82;2.15;;;21.50;53.80;;;;;;5142497;27;43384;-62
2022/05/27 10:23:09;;;;;;;6.78;2.60;;;21.40;53.80;;;;;;5150190;27;43427;-62
2022/05/27 10:25:43;;;;;;;7.40;3.00;;;21.40;53.90;;;;;;5144403;27;43473;-61
2022/05/27 10:28:31;;;;;;;8.35;2.83;;;21.40;53.70;;;;;;5152591;27;44072;-62
2022/05/27 10:31:04;;;;;;;5.95;2.70;;;21.40;53.80;;;;;;5139964;27;43712;-61
2022/05/27 10:33:43;;;;;;;8.73;3.05;;;21.30;53.80;;;;;;5144618;27;43474;-61
2022/05/27 10:36:32;;;;;;;5.68;2.20;;;21.40;53.80;;;;;;5130997;27;43539;-61
2022/05/27 10:39:18;;;;;;;9.38;2.58;;;21.30;53.80;;;;;;5148910;27;44052;-62
2022/05/27 10:42:22;;;;;;;6.88;2.63;;;21.30;53.90;;;;;;5149658;27;43984;-61
2022/05/27 10:45:25;;;;;;;6.18;2.20;;;21.30;53.90;;;;;;5139250;27;43698;-61
2022/05/27 10:48:45;;;;;;;5.75;2.47;;;21.30;54.60;;;;;;5141310;27;43402;-62
2022/05/27 10:52:09;;;;;;;7.18;2.53;;;21.20;53.80;;;;;;5074576;27;43809;-62
2022/05/27 10:55:00;;;;;;;5.30;2.50;;;21.20;53.90;;;;;;5064483;28;44110;-61
2022/05/27 11:04:03;;;;;;;7.53;2.75;;;21.10;54.00;;;;;;5136260;27;43811;-61
2022/05/27 11:07:01;;;;;;;4.85;2.10;;;21.10;54.10;;;;;;5114465;27;43539;-61
2022/05/27 11:09:32;;;;;;;7.53;2.70;;;21.10;54.20;;;;;;5150112;27;43494;-61
2022/05/27 11:12:07;;;;;;;5.20;2.33;;;21.10;54.20;;;;;;5149244;27;43448;-61
2022/05/27 11:15:17;;;;;;;6.10;2.42;;;21.10;54.20;;;;;;5146702;27;43868;-61
2022/05/27 11:18:29;;;;;;;6.50;2.58;;;21.10;54.20;;;;;;5148369;27;43386;-61
2022/05/27 11:21:09;;;;;;;4.63;2.13;;;21.10;54.30;;;;;;5144132;27;43489;-61
2022/05/27 11:24:09;;;;;;;5.82;2.22;;;21.00;54.20;;;;;;5145224;27;43545;-61
2022/05/27 11:27:04;;;;;;;6.05;2.42;;;21.00;54.20;;;;;;5129757;27;44297;-62
2022/05/27 11:29:47;;;;;;;5.53;2.33;;;21.00;54.30;;;;;;5149014;27;43399;-61
2022/05/27 11:32:37;;;;;;;7.32;2.33;;;21.10;54.30;;;;;;5149613;27;43474;-61
2022/05/27 11:35:10;;;;;;;4.32;2.28;;;21.00;54.10;;;;;;5151972;27;43464;-62
2022/05/27 11:37:44;;;;;;;4.43;2.25;;;21.00;54.30;;;;;;5136642;27;44967;-62
2022/05/27 11:40:46;;;;;;;5.22;2.40;;;21.00;54.30;;;;;;5149419;27;43472;-62
2022/05/27 11:43:28;;;;;;;;;;;21.00;54.20;;;;;;5147722;27;43638;-62
2022/05/27 11:46:25;;;;;;;6.30;2.50;;;21.00;54.30;;;;;;5140354;27;43504;-61
2022/05/27 11:48:56;;;;;;;4.00;2.35;;;21.00;54.40;;;;;;5148508;27;45002;-60
2022/05/27 11:51:29;;;;;;;6.65;2.03;;;21.00;54.50;;;;;;5132696;27;43468;-61
2022/05/27 11:54:08;;;;;;;6.78;2.50;;;21.10;54.60;;;;;;5148791;27;43464;-61
2022/05/27 11:57:06;;;;;;;9.48;2.70;;;21.10;54.60;;;;;;5151087;27;43454;-61
2022/05/27 11:59:38;;;;;;;5.90;2.17;;;21.20;54.50;;;;;;5138601;27;43810;-62
2022/05/27 12:02:26;;;;;;;6.32;2.15;;;21.10;54.30;;;;;;5148059;27;43490;-61
2022/05/27 12:05:01;;;;;;;5.88;2.25;;;21.10;54.30;;;;;;5145908;27;43543;-61
2022/05/27 12:07:48;;;;;;;6.38;2.50;;;21.20;54.10;;;;;;5147952;27;43492;-61
2022/05/27 12:10:31;;;;;;;4.68;2.03;;;21.10;54.10;;;;;;5146719;27;43874;-61
2022/05/27 12:13:22;;;;;;;5.40;2.20;;;21.20;54.10;;;;;;5144149;27;43700;-61
2022/05/27 12:15:54;;;;;;;5.63;2.22;;;21.10;53.80;;;;;;5148196;27;43437;-61
2022/05/27 12:18:38;;;;;;;5.72;2.10;;;21.10;54.10;;;;;;5146092;27;43511;-61
2022/05/27 12:21:11;;;;;;;5.68;2.03;;;21.10;54.20;;;;;;5140479;27;44063;-61
2022/05/27 12:23:45;;;;;;;6.22;2.25;;;21.10;54.10;;;;;;5145220;27;43485;-61
2022/05/27 12:26:14;;;;;;;4.68;2.15;;;21.10;54.80;;;;;;5150710;27;43571;-61
2022/05/27 12:28:44;;;;;;;5.75;2.55;;;21.10;54.20;;;;;;5144259;27;43507;-62
2022/05/27 12:31:13;;;;;;;8.97;2.20;;;21.20;54.20;;;;;;5146606;27;44633;-61
2022/05/27 12:33:41;;;;;;;5.25;2.60;;;21.20;54.20;;;;;;5149093;27;43745;-62
2022/05/27 12:36:24;;;;;;;6.78;2.17;;;21.20;54.10;;;;;;5145562;27;43425;-61
2022/05/27 12:38:54;;;;;;;6.35;2.78;;;21.20;54.20;;;;;;5145666;27;43450;-62
2022/05/27 12:41:36;;;;;;;5.43;2.20;;;21.20;54.30;;;;;;5148132;27;43746;-61
2022/05/27 12:44:16;;;;;;;5.72;2.30;;;21.20;54.20;;;;;;5143602;27;43453;-61
2022/05/27 12:46:45;;;;;;;6.38;2.47;;;21.20;54.20;;;;;;5141423;27;43559;-62
2022/05/27 12:49:32;;;;;;;5.85;2.35;;;21.20;54.20;;;;;;5143132;27;43586;-62
2022/05/27 12:52:00;;;;;;;5.15;2.00;;;21.30;54.20;;;;;;5145741;27;43794;-62
2022/05/27 12:54:42;;;;;;;4.15;2.00;;;21.30;54.10;;;;;;5147508;27;43430;-62
2022/05/27 13:03:37;;;;;;;4.55;2.20;;;21.30;54.40;;;;;;5145247;27;44975;-61
2022/05/27 13:06:19;;;;;;;6.38;2.55;;;21.40;54.40;;;;;;5142433;27;44032;-62
2022/05/27 13:09:00;;;;;;;6.55;2.53;;;21.40;54.40;;;;;;5147049;27;43676;-62
2022/05/27 13:11:31;;;;;;;;;;;21.40;54.40;;;;;;5146767;27;43541;-62
2022/05/27 13:14:04;;;;;;;5.40;2.55;;;21.40;54.40;;;;;;5142184;27;43774;-62
2022/05/27 13:17:35;;;;;;;4.78;2.20;;;21.40;54.40;;;;;;5146543;27;43762;-62
2022/05/27 13:20:09;;;;;;;5.18;2.13;;;21.40;54.20;;;;;;5141337;27;43527;-62
2022/05/27 13:23:01;;;;;;;5.65;2.22;;;21.40;54.10;;;;;;5145675;27;43467;-62
2022/05/27 13:25:29;;;;;;;4.78;2.40;;;21.40;54.70;;;;;;5147301;27;43796;-62
2022/05/27 13:28:03;;;;;;;5.75;2.28;;;21.40;54.00;;;;;;5144563;27;44317;-61
2022/05/27 13:30:49;;;;;;;4.45;2.17;;;21.40;53.90;;;;;;5140778;27;43423;-61
2022/05/27 13:33:24;;;;;;;6.60;2.10;;;21.40;54.00;;;;;;5145420;27;43497;-62
2022/05/27 13:35:52;;;;;;;6.47;2.55;;;21.40;54.00;;;;;;5141978;27;43798;-61
2022/05/27 13:38:25;;;;;;;;;;;21.40;53.80;;;;;;5147612;27;43473;-61
2022/05/27 13:40:53;;;;;;;5.87;2.20;;;21.50;54.00;;;;;;5149924;27;43397;-61
2022/05/27 13:43:27;;;;;;;6.35;2.70;;;21.40;53.90;;;;;;5147510;27;43571;-63
2022/05/27 13:46:15;;;;;;;5.32;2.65;;;21.40;53.80;;;;;;5136305;27;43810;-62
2022/05/27 13:48:48;;;;;;;5.70;2.40;;;21.50;53.90;;;;;;5147050;27;44124;-61
2022/05/27 13:51:22;;;;;;;5.78;2.40;;;21.50;53.80;;;;;;5143124;27;43494;-61
2022/05/27 13:53:51;;;;;;;5.72;2.38;;;21.50;53.80;;;;;;5146282;27;43560;-61
2022/05/27 13:56:34;;;;;;;4.75;2.17;;;21.50;53.90;;;;;;5143754;27;44765;-61
2022/05/27 13:59:06;;;;;;;5.90;2.33;;;21.50;53.80;;;;;;5146190;27;43364;-62
2022/05/27 14:01:37;;;;;;;5.20;2.38;;;21.50;53.70;;;;;;5124973;27;43484;-62
2022/05/27 14:04:23;;;;;;;6.47;2.55;;;21.50;53.70;;;;;;5147801;27;43432;-61
2022/05/27 14:06:51;;;;;;;5.85;2.40;;;21.50;53.60;;;;;;5141496;27;43767;-61